createdAt,value
2018-03-23T00:02:28.298Z,6.40
2018-03-23T00:05:29.563Z,6.40
2018-03-23T00:08:30.821Z,6.40
2018-03-23T00:11:32.816Z,6.40
2018-03-23T00:14:34.095Z,6.40
2018-03-23T00:17:35.346Z,6.30
2018-03-23T00:20:36.573Z,6.40
2018-03-23T00:23:37.810Z,6.30
2018-03-23T00:26:39.047Z,6.10
2018-03-23T00:29:40.290Z,6.30
2018-03-23T00:32:41.534Z,6.30
2018-03-23T00:35:43.507Z,6.20
2018-03-23T00:38:45.508Z,6.20
2018-03-23T00:41:46.746Z,6.30
2018-03-23T00:44:48.787Z,6.20
2018-03-23T00:47:50.069Z,6.10
2018-03-23T00:50:51.297Z,6.20
2018-03-23T00:53:52.565Z,6.10
2018-03-23T00:56:53.802Z,6.10
2018-03-23T00:59:55.073Z,6.10
2018-03-23T01:02:56.341Z,6.00
2018-03-23T01:05:57.597Z,6.10
2018-03-23T01:08:59.596Z,6.20
2018-03-23T01:12:00.835Z,6.10
2018-03-23T01:15:02.095Z,6.20
2018-03-23T01:18:04.079Z,6.20
2018-03-23T01:21:05.324Z,6.20
2018-03-23T01:24:07.325Z,6.20
2018-03-23T01:27:08.579Z,6.10
2018-03-23T01:30:10.594Z,6.20
2018-03-23T01:33:11.858Z,6.20
2018-03-23T01:36:13.100Z,6.10
2018-03-23T01:39:14.365Z,6.20
2018-03-23T01:42:15.596Z,6.20
2018-03-23T01:45:17.586Z,6.20
2018-03-23T01:48:19.638Z,6.20
2018-03-23T01:51:20.894Z,6.20
2018-03-23T01:54:22.161Z,6.20
2018-03-23T01:57:23.410Z,6.10
2018-03-23T02:00:24.648Z,6.00
2018-03-23T02:03:25.922Z,6.10
2018-03-23T02:06:27.175Z,6.10
2018-03-23T02:09:28.410Z,6.00
2018-03-23T02:12:30.411Z,6.10
2018-03-23T02:15:31.631Z,6.00
2018-03-23T02:18:32.889Z,6.10
2018-03-23T02:21:34.118Z,6.10
2018-03-23T02:24:35.602Z,6.10
2018-03-23T02:27:36.857Z,6.10
2018-03-23T02:30:38.131Z,6.10
2018-03-23T02:33:39.361Z,6.10
2018-03-23T02:36:40.598Z,6.10
2018-03-23T02:39:42.576Z,6.10
2018-03-23T02:42:44.577Z,6.20
2018-03-23T02:45:45.824Z,6.10
2018-03-23T02:48:47.832Z,6.10
2018-03-23T02:51:49.075Z,6.00
2018-03-23T02:54:50.366Z,6.10
2018-03-23T02:57:51.618Z,6.20
2018-03-23T03:00:52.863Z,6.30
2018-03-23T03:03:54.888Z,6.20
2018-03-23T03:06:56.140Z,6.20
2018-03-23T03:09:57.395Z,6.20
2018-03-23T03:12:58.653Z,6.20
2018-03-23T03:15:59.907Z,6.00
2018-03-23T03:19:01.147Z,6.10
2018-03-23T03:22:03.132Z,6.10
2018-03-23T03:25:05.137Z,6.10
2018-03-23T03:28:06.387Z,6.10
2018-03-23T03:31:07.806Z,6.10
2018-03-23T03:34:09.032Z,6.20
2018-03-23T03:37:10.283Z,6.20
2018-03-23T03:40:11.553Z,6.20
2018-03-23T03:43:12.794Z,6.20
2018-03-23T03:46:14.795Z,6.20
2018-03-23T03:49:16.042Z,6.20
2018-03-23T03:52:18.012Z,6.20
2018-03-23T03:55:19.992Z,6.20
2018-03-23T03:58:21.982Z,6.20
2018-03-23T04:01:23.223Z,6.10
2018-03-23T04:04:24.460Z,6.20
2018-03-23T04:07:25.684Z,6.20
2018-03-23T04:10:26.945Z,6.20
2018-03-23T04:13:28.206Z,6.30
2018-03-23T04:16:29.465Z,6.30
2018-03-23T04:19:30.704Z,6.20
2018-03-23T04:22:31.929Z,6.30
2018-03-23T04:25:33.170Z,6.30
2018-03-23T04:28:34.395Z,6.30
2018-03-23T04:31:36.384Z,6.30
2018-03-23T04:34:38.357Z,6.20
2018-03-23T04:37:40.341Z,6.20
2018-03-23T04:40:42.331Z,6.20
2018-03-23T04:43:44.341Z,6.20
2018-03-23T04:46:45.544Z,6.20
2018-03-23T04:49:46.835Z,6.20
2018-03-23T04:52:48.834Z,6.20
2018-03-23T04:55:50.076Z,6.20
2018-03-23T04:58:52.324Z,6.10
2018-03-23T05:01:53.389Z,6.00
2018-03-23T05:04:54.642Z,6.10
2018-03-23T05:07:55.884Z,6.10
2018-03-23T05:10:57.131Z,6.10
2018-03-23T05:13:58.360Z,6.10
2018-03-23T05:16:59.576Z,6.10
2018-03-23T05:20:00.841Z,6.10
2018-03-23T05:23:02.084Z,6.20
2018-03-23T05:26:03.328Z,6.20
2018-03-23T05:29:04.594Z,6.20
2018-03-23T05:32:05.815Z,6.20
2018-03-23T05:35:07.062Z,6.10
2018-03-23T05:38:08.312Z,6.10
2018-03-23T05:41:09.575Z,6.10
2018-03-23T05:44:10.829Z,6.10
2018-03-23T05:47:12.044Z,6.10
2018-03-23T05:50:13.314Z,6.10
2018-03-23T05:53:14.600Z,6.10
2018-03-23T05:56:15.827Z,6.10
2018-03-23T05:59:17.059Z,6.10
2018-03-23T06:02:18.288Z,6.10
2018-03-23T06:05:19.527Z,6.10
2018-03-23T06:08:20.735Z,6.20
2018-03-23T06:11:21.982Z,6.20
2018-03-23T06:14:23.287Z,6.10
2018-03-23T06:17:25.283Z,6.10
2018-03-23T06:20:26.562Z,6.10
2018-03-23T06:23:28.534Z,6.00
2018-03-23T06:29:37.770Z,6.00
2018-03-23T06:32:38.988Z,6.00
2018-03-23T06:35:40.983Z,5.90
2018-03-23T06:38:42.249Z,5.80
2018-03-23T06:41:43.498Z,5.90
2018-03-23T06:44:45.480Z,5.90
2018-03-23T06:47:54.406Z,5.90
2018-03-23T06:50:55.754Z,5.90
2018-03-23T06:53:57.002Z,5.90
2018-03-23T06:56:58.248Z,5.80
2018-03-23T06:59:59.464Z,5.80
2018-03-23T07:03:00.710Z,5.80
2018-03-23T07:06:01.948Z,5.80
2018-03-23T07:09:03.235Z,5.80
2018-03-23T07:12:04.470Z,5.90
2018-03-23T07:15:05.736Z,5.90
2018-03-23T07:18:07.007Z,5.90
2018-03-23T07:21:08.267Z,5.90
2018-03-23T07:24:09.694Z,5.90
2018-03-23T07:27:11.716Z,5.90
2018-03-23T07:30:12.954Z,5.90
2018-03-23T07:33:14.250Z,5.90
2018-03-23T07:36:15.499Z,5.90
2018-03-23T07:39:16.758Z,5.90
2018-03-23T07:42:18.011Z,5.90
2018-03-23T07:45:19.223Z,5.90
2018-03-23T07:48:20.450Z,5.90
2018-03-23T07:51:21.717Z,6.00
2018-03-23T07:54:24.035Z,6.00
2018-03-23T07:57:26.043Z,6.10
2018-03-23T08:00:27.999Z,6.10
2018-03-23T08:03:29.237Z,6.10
2018-03-23T08:06:30.501Z,6.10
2018-03-23T08:09:31.756Z,5.90
2018-03-23T08:12:33.010Z,6.00
2018-03-23T08:15:34.251Z,6.00
2018-03-23T08:18:35.511Z,6.10
2018-03-23T08:21:36.795Z,6.00
2018-03-23T08:24:38.059Z,6.10
2018-03-23T08:27:39.279Z,6.10
2018-03-23T08:30:40.507Z,6.10
2018-03-23T08:33:41.750Z,6.20
2018-03-23T08:36:42.994Z,6.20
2018-03-23T08:39:44.222Z,6.30
2018-03-23T08:42:45.536Z,6.50
2018-03-23T08:45:46.948Z,6.50
2018-03-23T08:48:49.041Z,6.60
2018-03-23T08:51:50.307Z,6.60
2018-03-23T08:54:52.306Z,6.70
2018-03-23T08:57:54.269Z,6.70
2018-03-23T09:00:56.271Z,6.70
2018-03-23T09:03:57.538Z,6.70
2018-03-23T09:06:58.791Z,6.80
2018-03-23T09:10:00.782Z,6.40
2018-03-23T09:13:02.009Z,6.40
2018-03-23T09:16:03.253Z,6.40
2018-03-23T09:19:04.573Z,6.40
2018-03-23T09:22:05.826Z,6.50
2018-03-23T09:25:07.821Z,6.70
2018-03-23T09:28:14.123Z,6.70
2018-03-23T09:31:15.425Z,6.60
2018-03-23T09:34:16.691Z,6.70
2018-03-23T09:37:17.987Z,6.70
2018-03-23T09:40:19.228Z,6.70
2018-03-23T09:43:21.255Z,6.80
2018-03-23T09:46:22.534Z,6.80
2018-03-23T09:49:23.773Z,6.80
2018-03-23T09:52:25.035Z,6.80
2018-03-23T09:55:26.343Z,6.80
2018-03-23T09:58:27.630Z,6.80
2018-03-23T10:01:29.682Z,7.10
2018-03-23T10:04:30.973Z,7.00
2018-03-23T10:07:32.988Z,7.20
2018-03-23T10:13:42.223Z,9.60
2018-03-23T10:16:43.463Z,9.40
2018-03-23T10:19:44.734Z,8.40
2018-03-23T10:22:46.011Z,7.80
2018-03-23T10:25:47.287Z,7.50
2018-03-23T10:28:49.299Z,7.30
2018-03-23T10:31:50.532Z,7.30
2018-03-23T10:34:52.526Z,7.40
2018-03-23T10:37:54.509Z,7.50
2018-03-23T10:40:56.518Z,7.50
2018-03-23T10:43:57.807Z,7.50
2018-03-23T10:46:59.050Z,7.40
2018-03-23T10:50:00.326Z,7.40
2018-03-23T10:53:02.383Z,7.50
2018-03-23T10:56:03.664Z,7.50
2018-03-23T10:59:05.005Z,7.60
2018-03-23T11:02:07.023Z,7.40
2018-03-23T11:05:08.280Z,7.40
2018-03-23T11:08:09.625Z,7.40
2018-03-23T11:11:10.896Z,7.40
2018-03-23T11:14:12.155Z,7.40
2018-03-23T11:17:13.399Z,7.30
2018-03-23T11:20:14.679Z,7.40
2018-03-23T11:23:15.954Z,7.40
2018-03-23T11:26:17.264Z,7.40
2018-03-23T11:29:19.251Z,7.30
2018-03-23T11:32:21.264Z,7.40
2018-03-23T11:35:22.555Z,7.30
2018-03-23T11:38:23.823Z,7.40
2018-03-23T11:41:25.090Z,7.50
2018-03-23T11:44:26.397Z,7.40
2018-03-23T11:47:27.612Z,7.30
2018-03-23T11:50:28.840Z,7.20
2018-03-23T11:53:30.134Z,7.40
2018-03-23T11:56:31.404Z,7.40
2018-03-23T11:59:32.684Z,7.40
2018-03-23T12:02:33.944Z,7.40
2018-03-23T12:05:36.053Z,7.40
2018-03-23T12:08:38.057Z,7.40
2018-03-23T12:11:39.315Z,7.40
2018-03-23T12:14:40.580Z,7.50
2018-03-23T12:17:41.841Z,7.60
2018-03-23T12:20:43.107Z,7.70
2018-03-23T12:23:44.379Z,7.70
2018-03-23T12:26:45.616Z,7.70
2018-03-23T12:29:47.639Z,7.70
2018-03-23T12:32:48.877Z,7.70
2018-03-23T12:35:50.216Z,7.60
2018-03-23T12:38:52.226Z,7.50
2018-03-23T12:41:53.499Z,7.50
2018-03-23T12:44:54.732Z,7.50
2018-03-23T12:47:56.719Z,7.60
2018-03-23T12:50:58.100Z,7.50
2018-03-23T12:53:59.326Z,7.60
2018-03-23T12:57:01.413Z,7.50
2018-03-23T13:00:03.427Z,7.50
2018-03-23T13:03:04.686Z,7.50
2018-03-23T13:06:06.040Z,7.50
2018-03-23T13:09:08.111Z,7.50
2018-03-23T13:12:10.108Z,7.60
2018-03-23T13:15:11.571Z,7.60
2018-03-23T13:18:12.904Z,7.60
2018-03-23T13:21:14.160Z,7.60
2018-03-23T13:24:15.520Z,7.60
2018-03-23T13:27:16.784Z,7.60
2018-03-23T13:30:18.198Z,7.60
2018-03-23T13:33:19.421Z,7.60
2018-03-23T13:36:20.807Z,7.60
2018-03-23T13:39:22.875Z,7.60
2018-03-23T13:42:24.111Z,7.60
2018-03-23T13:45:25.376Z,7.70
2018-03-23T13:48:26.684Z,7.70
2018-03-23T13:51:28.751Z,7.80
2018-03-23T13:54:30.005Z,7.70
2018-03-23T13:57:31.265Z,7.80
2018-03-23T14:00:38.635Z,7.90
2018-03-23T14:03:39.935Z,7.90
2018-03-23T14:06:41.344Z,7.90
2018-03-23T14:09:42.603Z,7.90
2018-03-23T14:12:43.895Z,7.80
2018-03-23T14:15:45.127Z,7.90
2018-03-23T14:18:47.105Z,7.90
2018-03-23T14:21:49.109Z,7.90
2018-03-23T14:24:50.344Z,7.90
2018-03-23T14:27:52.322Z,7.90
2018-03-23T14:30:54.785Z,7.90
2018-03-23T14:33:56.063Z,7.90
2018-03-23T14:36:57.295Z,7.80
2018-03-23T14:39:58.547Z,7.70
2018-03-23T14:42:59.853Z,7.70
2018-03-23T14:46:01.086Z,7.70
2018-03-23T14:49:02.355Z,7.80
2018-03-23T14:52:03.646Z,7.80
2018-03-23T14:55:04.895Z,7.80
2018-03-23T14:58:06.181Z,7.70
2018-03-23T15:01:08.171Z,7.60
2018-03-23T15:04:10.160Z,7.60
2018-03-23T15:07:11.383Z,7.60
2018-03-23T15:10:12.608Z,7.60
2018-03-23T15:13:13.902Z,7.60
2018-03-23T15:16:15.179Z,7.60
2018-03-23T15:19:16.453Z,7.50
2018-03-23T15:22:18.425Z,7.40
2018-03-23T15:25:19.645Z,7.40
2018-03-23T15:28:21.065Z,7.40
2018-03-23T15:31:23.055Z,7.40
2018-03-23T15:34:24.322Z,7.40
2018-03-23T15:37:25.558Z,7.60
2018-03-23T15:40:26.834Z,7.60
2018-03-23T15:43:28.806Z,7.70
2018-03-23T15:46:30.154Z,7.60
2018-03-23T15:49:31.368Z,7.60
2018-03-23T15:52:32.599Z,7.60
2018-03-23T15:55:33.832Z,7.60
2018-03-23T15:58:35.115Z,7.60
2018-03-23T16:01:36.350Z,7.60
2018-03-23T16:04:37.583Z,7.60
2018-03-23T16:07:38.883Z,7.60
2018-03-23T16:10:40.117Z,7.70
2018-03-23T16:13:41.373Z,7.80
2018-03-23T16:16:42.633Z,7.80
2018-03-23T16:19:43.888Z,7.70
2018-03-23T16:22:48.163Z,7.60
2018-03-23T16:25:49.441Z,7.50
2018-03-23T16:28:50.707Z,7.60
2018-03-23T16:31:51.952Z,7.60
2018-03-23T16:34:53.176Z,7.60
2018-03-23T16:37:54.460Z,7.60
2018-03-23T16:40:55.758Z,7.60
2018-03-23T16:43:57.011Z,7.50
2018-03-23T16:46:58.258Z,7.50
2018-03-23T16:49:59.569Z,7.40
2018-03-23T16:53:00.843Z,7.40
2018-03-23T16:56:02.891Z,7.40
2018-03-23T16:59:04.170Z,7.40
2018-03-23T17:02:05.419Z,7.50
2018-03-23T17:05:06.695Z,7.50
2018-03-23T17:08:07.964Z,7.50
2018-03-23T17:11:09.219Z,7.40
2018-03-23T17:14:10.498Z,7.40
2018-03-23T17:17:12.563Z,7.50
2018-03-23T17:20:13.856Z,7.50
2018-03-23T17:23:15.100Z,7.50
2018-03-23T17:26:16.385Z,7.50
2018-03-23T17:29:17.643Z,7.40
2018-03-23T17:32:19.608Z,7.40
2018-03-23T17:35:20.975Z,7.40
2018-03-23T17:38:22.983Z,7.40
2018-03-23T17:41:24.285Z,7.40
2018-03-23T17:44:25.578Z,7.50
2018-03-23T17:47:26.879Z,7.70
2018-03-23T17:50:28.140Z,7.60
2018-03-23T17:53:29.403Z,7.50
2018-03-23T17:56:30.675Z,7.40
2018-03-23T17:59:31.912Z,7.40
2018-03-23T18:02:33.964Z,7.40
2018-03-23T18:05:35.524Z,7.40
2018-03-23T18:08:36.779Z,7.40
2018-03-23T18:11:38.079Z,7.30
2018-03-23T18:14:39.344Z,7.50
2018-03-23T18:17:40.579Z,7.20
2018-03-23T18:20:41.857Z,7.20
2018-03-23T18:23:43.140Z,7.20
2018-03-23T18:26:45.131Z,7.30
2018-03-23T18:29:47.159Z,7.20
2018-03-23T18:32:48.414Z,7.20
2018-03-23T18:35:50.006Z,7.20
2018-03-23T18:38:51.274Z,7.20
2018-03-23T18:41:52.527Z,7.30
2018-03-23T18:44:53.782Z,7.30
2018-03-23T18:47:55.042Z,7.30
2018-03-23T18:50:56.322Z,7.30
2018-03-23T18:53:57.618Z,7.30
2018-03-23T18:56:59.621Z,7.30
2018-03-23T19:00:00.887Z,7.30
2018-03-23T19:03:02.174Z,7.40
2018-03-23T19:06:03.491Z,7.20
2018-03-23T19:09:05.511Z,7.20
2018-03-23T19:12:06.772Z,7.30
2018-03-23T19:15:08.056Z,7.20
2018-03-23T19:18:09.299Z,7.20
2018-03-23T19:21:10.566Z,7.20
2018-03-23T19:24:11.843Z,7.20
2018-03-23T19:27:13.107Z,7.30
2018-03-23T19:30:14.520Z,7.20
2018-03-23T19:33:17.078Z,7.20
2018-03-23T19:36:18.419Z,7.20
2018-03-23T19:39:19.703Z,7.30
2018-03-23T19:42:20.994Z,7.20
2018-03-23T19:45:22.287Z,7.40
2018-03-23T19:48:23.582Z,7.30
2018-03-23T19:51:24.915Z,7.30
2018-03-23T19:54:26.175Z,7.20
2018-03-23T19:57:27.476Z,7.20
2018-03-23T20:00:28.789Z,7.20
2018-03-23T20:03:30.066Z,7.20
2018-03-23T20:06:31.369Z,7.20
2018-03-23T20:09:32.671Z,7.10
2018-03-23T20:12:33.934Z,7.10
2018-03-23T20:15:35.963Z,7.10
2018-03-23T20:18:38.109Z,7.10
2018-03-23T20:21:40.131Z,7.00
2018-03-23T20:24:41.409Z,7.00
2018-03-23T20:27:48.707Z,7.10
2018-03-23T20:30:50.110Z,7.10
2018-03-23T20:33:51.344Z,7.00
2018-03-23T20:36:52.615Z,7.10
2018-03-23T20:39:53.939Z,7.00
2018-03-23T20:42:55.218Z,7.00
2018-03-23T20:45:56.480Z,7.00
2018-03-23T20:48:57.789Z,7.00
2018-03-23T20:51:59.143Z,7.00
2018-03-23T20:55:00.416Z,7.10
2018-03-23T20:58:01.702Z,6.90
2018-03-23T21:01:03.731Z,7.00
2018-03-23T21:04:05.006Z,7.00
2018-03-23T21:07:06.314Z,7.00
2018-03-23T21:10:08.347Z,7.00
2018-03-23T21:13:09.618Z,7.00
2018-03-23T21:16:10.860Z,7.00
2018-03-23T21:19:12.088Z,7.00
2018-03-23T21:22:14.064Z,7.00
2018-03-23T21:25:16.044Z,7.00
2018-03-23T21:28:18.061Z,7.10
2018-03-23T21:31:19.339Z,7.10
2018-03-23T21:34:20.606Z,7.10
2018-03-23T21:37:21.885Z,7.00
2018-03-23T21:40:23.131Z,7.00
2018-03-23T21:43:25.151Z,7.10
2018-03-23T21:46:27.134Z,7.10
2018-03-23T21:49:29.150Z,7.10
2018-03-23T21:52:30.433Z,7.10
2018-03-23T21:55:31.730Z,7.10
2018-03-23T21:58:32.993Z,7.10
2018-03-23T22:01:34.244Z,7.10
2018-03-23T22:04:35.481Z,7.10
2018-03-23T22:07:36.789Z,7.10
2018-03-23T22:10:38.039Z,7.00
2018-03-23T22:13:40.092Z,7.10
2018-03-23T22:16:41.340Z,7.10
2018-03-23T22:19:42.580Z,7.10
2018-03-23T22:22:44.604Z,7.10
2018-03-23T22:25:45.828Z,7.10
2018-03-23T22:28:47.063Z,7.00
2018-03-23T22:31:48.310Z,7.00
2018-03-23T22:34:49.598Z,7.00
2018-03-23T22:37:51.592Z,7.00
2018-03-23T22:40:53.567Z,6.90
2018-03-23T22:43:55.557Z,6.80
2018-03-23T22:46:56.784Z,6.80
2018-03-23T22:49:58.008Z,6.80
2018-03-23T22:52:59.239Z,6.90
2018-03-23T22:56:00.499Z,6.90
2018-03-23T22:59:01.771Z,6.90
2018-03-23T23:02:03.034Z,6.90
2018-03-23T23:05:04.284Z,7.00
2018-03-23T23:08:06.292Z,6.90
2018-03-23T23:11:07.535Z,6.90
2018-03-23T23:14:09.531Z,6.90
2018-03-23T23:17:10.783Z,6.80
2018-03-23T23:20:12.785Z,6.60
2018-03-23T23:23:14.023Z,6.70
2018-03-23T23:26:15.263Z,6.60
2018-03-23T23:29:17.248Z,6.40
2018-03-23T23:32:18.468Z,6.40
2018-03-23T23:35:19.720Z,6.30
2018-03-23T23:38:20.952Z,6.30
2018-03-23T23:41:22.932Z,6.00
2018-03-23T23:44:24.904Z,5.90
2018-03-23T23:47:26.899Z,5.90
2018-03-23T23:50:28.131Z,5.80
2018-03-23T23:53:29.401Z,5.80
2018-03-23T23:56:31.432Z,5.70
2018-03-23T23:59:32.664Z,5.70
